createdAt,value
2018-07-09T00:00:24.500Z,1018.55
2018-07-09T00:01:33.419Z,1018.58
2018-07-09T00:02:42.063Z,1018.57
2018-07-09T00:03:50.717Z,1018.53
2018-07-09T00:04:59.352Z,1018.56
2018-07-09T00:06:08.297Z,1018.58
2018-07-09T00:07:17.203Z,1018.56
2018-07-09T00:08:25.859Z,1018.58
2018-07-09T00:09:34.504Z,1018.58
2018-07-09T00:10:43.152Z,1018.57
2018-07-09T00:11:51.793Z,1018.55
2018-07-09T00:13:00.441Z,1018.55
2018-07-09T00:14:09.620Z,1018.56
2018-07-09T00:15:18.259Z,1018.59
2018-07-09T00:16:26.910Z,1018.6
2018-07-09T00:17:35.547Z,1018.58
2018-07-09T00:18:44.202Z,1018.58
2018-07-09T00:19:52.840Z,1018.58
2018-07-09T00:21:01.490Z,1018.59
2018-07-09T00:22:10.399Z,1018.58
2018-07-09T00:23:19.052Z,1018.61
2018-07-09T00:24:28.223Z,1018.62
2018-07-09T00:25:36.870Z,1018.62
2018-07-09T00:26:45.507Z,1018.65
2018-07-09T00:27:54.154Z,1018.63
2018-07-09T00:29:02.806Z,1018.61
2018-07-09T00:30:11.454Z,1018.58
2018-07-09T00:31:20.102Z,1018.6
2018-07-09T00:32:28.742Z,1018.61
2018-07-09T00:33:37.653Z,1018.58
2018-07-09T00:34:46.294Z,1018.6
2018-07-09T00:35:54.948Z,1018.63
2018-07-09T00:37:03.585Z,1018.65
2018-07-09T00:38:12.236Z,1018.62
2018-07-09T00:39:20.873Z,1018.67
2018-07-09T00:40:29.529Z,1018.61
2018-07-09T00:41:38.431Z,1018.63
2018-07-09T00:42:47.081Z,1018.6
2018-07-09T00:43:55.723Z,1018.6
2018-07-09T00:45:04.378Z,1018.59
2018-07-09T00:46:13.021Z,1018.59
2018-07-09T00:47:21.661Z,1018.61
2018-07-09T00:48:30.302Z,1018.59
2018-07-09T00:49:38.946Z,1018.6
2018-07-09T00:50:47.605Z,1018.54
2018-07-09T00:51:56.566Z,1018.54
2018-07-09T00:53:05.216Z,1018.5
2018-07-09T00:54:14.119Z,1018.51
2018-07-09T00:55:22.773Z,1018.49
2018-07-09T00:56:31.415Z,1018.47
2018-07-09T00:57:40.059Z,1018.45
2018-07-09T00:58:48.695Z,1018.4
2018-07-09T00:59:57.344Z,1018.35
2018-07-09T01:01:05.985Z,1018.36
2018-07-09T01:02:14.898Z,1018.35
2018-07-09T01:03:23.805Z,1018.31
2018-07-09T01:04:32.453Z,1018.32
2018-07-09T01:05:41.098Z,1018.31
2018-07-09T01:06:50.001Z,1018.31
2018-07-09T01:07:58.651Z,1018.38
2018-07-09T01:09:07.811Z,1018.38
2018-07-09T01:10:16.455Z,1018.38
2018-07-09T01:11:25.368Z,1018.38
2018-07-09T01:12:34.280Z,1018.39
2018-07-09T01:13:43.187Z,1018.4
2018-07-09T01:14:51.829Z,1018.4
2018-07-09T01:16:00.476Z,1018.43
2018-07-09T01:17:09.120Z,1018.43
2018-07-09T01:18:17.757Z,1018.45
2018-07-09T01:19:26.406Z,1018.49
2018-07-09T01:20:35.050Z,1018.47
2018-07-09T01:21:43.971Z,1018.47
2018-07-09T01:22:52.613Z,1018.44
2018-07-09T01:24:01.257Z,1018.46
2018-07-09T01:25:09.900Z,1018.38
2018-07-09T01:26:18.545Z,1018.4
2018-07-09T01:27:27.195Z,1018.45
2018-07-09T01:28:35.837Z,1018.44
2018-07-09T01:29:44.485Z,1018.36
2018-07-09T01:30:53.126Z,1018.39
2018-07-09T01:32:01.773Z,1018.38
2018-07-09T01:33:10.419Z,1018.37
2018-07-09T01:34:19.324Z,1018.38
2018-07-09T01:35:27.966Z,1018.4
2018-07-09T01:36:36.613Z,1018.42
2018-07-09T01:37:45.523Z,1018.43
2018-07-09T01:38:54.167Z,1018.42
2018-07-09T01:40:02.809Z,1018.41
2018-07-09T01:41:11.456Z,1018.44
2018-07-09T01:42:20.101Z,1018.46
2018-07-09T01:43:28.747Z,1018.46
2018-07-09T01:44:37.393Z,1018.45
2018-07-09T01:45:46.032Z,1018.45
2018-07-09T01:46:54.938Z,1018.45
2018-07-09T01:48:03.583Z,1018.47
2018-07-09T01:49:12.231Z,1018.45
2018-07-09T01:50:20.872Z,1018.48
2018-07-09T01:51:29.514Z,1018.45
2018-07-09T01:52:38.420Z,1018.44
2018-07-09T01:53:47.066Z,1018.45
2018-07-09T01:54:55.707Z,1018.47
2018-07-09T01:56:04.353Z,1018.47
2018-07-09T01:57:13.000Z,1018.49
2018-07-09T01:58:21.637Z,1018.46
2018-07-09T01:59:30.282Z,1018.49
2018-07-09T02:00:38.931Z,1018.44
2018-07-09T02:01:47.580Z,1018.43
2018-07-09T02:02:56.754Z,1018.37
2018-07-09T02:04:05.390Z,1018.39
2018-07-09T02:05:14.300Z,1018.43
2018-07-09T02:06:22.939Z,1018.42
2018-07-09T02:07:31.591Z,1018.43
2018-07-09T02:08:40.225Z,1018.41
2018-07-09T02:09:48.873Z,1018.41
2018-07-09T02:10:57.511Z,1018.37
2018-07-09T02:12:06.434Z,1018.38
2018-07-09T02:13:15.336Z,1018.39
2018-07-09T02:14:23.980Z,1018.42
2018-07-09T02:15:32.621Z,1018.39
2018-07-09T02:16:41.274Z,1018.35
2018-07-09T02:17:49.912Z,1018.37
2018-07-09T02:18:58.553Z,1018.38
2018-07-09T02:20:07.192Z,1018.35
2018-07-09T02:21:15.838Z,1018.37
2018-07-09T02:22:24.497Z,1018.33
2018-07-09T02:23:33.138Z,1018.34
2018-07-09T02:24:41.784Z,1018.36
2018-07-09T02:25:50.422Z,1018.34
2018-07-09T02:26:59.073Z,1018.36
2018-07-09T02:28:07.714Z,1018.35
2018-07-09T02:29:16.361Z,1018.44
2018-07-09T02:30:25.261Z,1018.44
2018-07-09T02:31:34.443Z,1018.42
2018-07-09T02:32:43.347Z,1018.45
2018-07-09T02:33:51.997Z,1018.47
2018-07-09T02:35:00.635Z,1018.42
2018-07-09T02:36:09.285Z,1018.43
2018-07-09T02:37:17.932Z,1018.44
2018-07-09T02:38:26.575Z,1018.44
2018-07-09T02:39:35.487Z,1018.44
2018-07-09T02:40:44.127Z,1018.48
2018-07-09T02:41:52.775Z,1018.48
2018-07-09T02:43:01.677Z,1018.49
2018-07-09T02:44:10.597Z,1018.49
2018-07-09T02:45:19.232Z,1018.41
2018-07-09T02:46:28.148Z,1018.37
2018-07-09T02:47:36.795Z,1018.41
2018-07-09T02:48:45.454Z,1018.44
2018-07-09T02:49:54.363Z,1018.43
2018-07-09T02:51:03.009Z,1018.41
2018-07-09T02:52:11.928Z,1018.43
2018-07-09T02:53:20.585Z,1018.46
2018-07-09T02:54:29.224Z,1018.42
2018-07-09T02:55:37.866Z,1018.39
2018-07-09T02:56:46.515Z,1018.42
2018-07-09T02:57:55.421Z,1018.39
2018-07-09T02:59:04.074Z,1018.44
2018-07-09T03:00:12.715Z,1018.41
2018-07-09T03:01:21.629Z,1018.45
2018-07-09T03:02:30.265Z,1018.48
2018-07-09T03:03:39.184Z,1018.5
2018-07-09T03:04:48.101Z,1018.48
2018-07-09T03:05:56.795Z,1018.49
2018-07-09T03:07:05.621Z,1018.48
2018-07-09T03:08:14.561Z,1018.52
2018-07-09T03:09:23.304Z,1018.56
2018-07-09T03:10:32.004Z,1018.63
2018-07-09T03:11:40.643Z,1018.56
2018-07-09T03:12:49.583Z,1018.6
2018-07-09T03:13:58.235Z,1018.65
2018-07-09T03:15:06.889Z,1018.64
2018-07-09T03:16:15.807Z,1018.69
2018-07-09T03:17:24.706Z,1018.69
2018-07-09T03:18:33.624Z,1018.68
2018-07-09T03:19:42.263Z,1018.68
2018-07-09T03:20:50.912Z,1018.69
2018-07-09T03:21:59.552Z,1018.73
2018-07-09T03:23:08.722Z,1018.73
2018-07-09T03:24:17.371Z,1018.7
2018-07-09T03:25:26.019Z,1018.72
2018-07-09T03:26:34.657Z,1018.71
2018-07-09T03:27:43.301Z,1018.72
2018-07-09T03:28:51.942Z,1018.68
2018-07-09T03:30:00.598Z,1018.7
2018-07-09T03:31:10.055Z,1018.63
2018-07-09T03:32:18.957Z,1018.67
2018-07-09T03:33:27.600Z,1018.67
2018-07-09T03:34:36.241Z,1018.68
2018-07-09T03:35:44.888Z,1018.68
2018-07-09T03:36:53.538Z,1018.69
2018-07-09T03:38:02.220Z,1018.69
2018-07-09T03:39:10.818Z,1018.66
2018-07-09T03:40:19.472Z,1018.66
2018-07-09T03:41:28.117Z,1018.66
2018-07-09T03:42:36.757Z,1018.64
2018-07-09T03:43:45.396Z,1018.63
2018-07-09T03:44:54.046Z,1018.65
2018-07-09T03:46:02.685Z,1018.66
2018-07-09T03:47:11.331Z,1018.61
2018-07-09T03:48:20.234Z,1018.64
2018-07-09T03:49:29.408Z,1018.63
2018-07-09T03:50:38.055Z,1018.61
2018-07-09T03:51:46.701Z,1018.62
2018-07-09T03:52:55.347Z,1018.65
2018-07-09T03:54:03.986Z,1018.65
2018-07-09T03:55:12.630Z,1018.68
2018-07-09T03:56:21.270Z,1018.67
2018-07-09T03:57:29.909Z,1018.69
2018-07-09T03:58:38.555Z,1018.64
2018-07-09T03:59:47.198Z,1018.7
2018-07-09T04:00:55.841Z,1018.68
2018-07-09T04:02:04.485Z,1018.67
2018-07-09T04:03:13.138Z,1018.63
2018-07-09T04:04:22.040Z,1018.68
2018-07-09T04:05:30.692Z,1018.64
2018-07-09T04:06:39.330Z,1018.65
2018-07-09T04:07:47.974Z,1018.67
2018-07-09T04:08:57.152Z,1018.67
2018-07-09T04:10:05.795Z,1018.66
2018-07-09T04:11:14.442Z,1018.68
2018-07-09T04:12:23.080Z,1018.69
2018-07-09T04:13:31.725Z,1018.65
2018-07-09T04:14:40.411Z,1018.63
2018-07-09T04:15:49.017Z,1018.67
2018-07-09T04:16:57.656Z,1018.69
2018-07-09T04:18:06.300Z,1018.67
2018-07-09T04:19:14.944Z,1018.68
2018-07-09T04:20:23.593Z,1018.69
2018-07-09T04:21:32.233Z,1018.7
2018-07-09T04:22:40.877Z,1018.65
2018-07-09T04:23:49.519Z,1018.65
2018-07-09T04:24:58.439Z,1018.64
2018-07-09T04:26:07.112Z,1018.61
2018-07-09T04:27:16.068Z,1018.67
2018-07-09T04:28:24.710Z,1018.65
2018-07-09T04:29:33.356Z,1018.69
2018-07-09T04:30:42.000Z,1018.69
2018-07-09T04:31:50.668Z,1018.74
2018-07-09T04:32:59.285Z,1018.71
2018-07-09T04:34:07.977Z,1018.73
2018-07-09T04:35:16.576Z,1018.72
2018-07-09T04:36:25.479Z,1018.7
2018-07-09T04:37:34.121Z,1018.7
2018-07-09T04:38:42.762Z,1018.68
2018-07-09T04:39:51.410Z,1018.67
2018-07-09T04:41:00.053Z,1018.66
2018-07-09T04:42:08.699Z,1018.68
2018-07-09T04:43:17.407Z,1018.64
2018-07-09T04:44:25.990Z,1018.63
2018-07-09T04:45:34.898Z,1018.67
2018-07-09T04:46:43.545Z,1018.68
2018-07-09T04:47:52.192Z,1018.69
2018-07-09T04:49:00.831Z,1018.71
2018-07-09T04:50:09.477Z,1018.71
2018-07-09T04:51:18.383Z,1018.72
2018-07-09T04:52:27.300Z,1018.73
2018-07-09T04:53:36.269Z,1018.72
2018-07-09T04:54:44.850Z,1018.67
2018-07-09T04:55:53.493Z,1018.64
2018-07-09T04:57:02.148Z,1018.69
2018-07-09T04:58:10.784Z,1018.67
2018-07-09T04:59:19.428Z,1018.71
2018-07-09T05:00:28.341Z,1018.68
2018-07-09T05:01:37.252Z,1018.7
2018-07-09T05:02:45.893Z,1018.66
2018-07-09T05:03:54.533Z,1018.65
2018-07-09T05:05:03.183Z,1018.62
2018-07-09T05:06:12.089Z,1018.57
2018-07-09T05:07:20.741Z,1018.58
2018-07-09T05:08:29.382Z,1018.55
2018-07-09T05:09:38.032Z,1018.58
2018-07-09T05:10:46.662Z,1018.55
2018-07-09T05:11:55.315Z,1018.56
2018-07-09T05:13:03.965Z,1018.56
2018-07-09T05:14:12.604Z,1018.56
2018-07-09T05:15:21.238Z,1018.6
2018-07-09T05:16:29.892Z,1018.64
2018-07-09T05:17:38.533Z,1018.62
2018-07-09T05:18:47.182Z,1018.62
2018-07-09T05:19:55.818Z,1018.61
2018-07-09T05:21:04.462Z,1018.61
2018-07-09T05:22:13.112Z,1018.62
2018-07-09T05:23:21.770Z,1018.66
2018-07-09T05:24:30.946Z,1018.66
2018-07-09T05:25:39.581Z,1018.7
2018-07-09T05:26:48.230Z,1018.74
2018-07-09T05:27:56.868Z,1018.76
2018-07-09T05:29:05.791Z,1018.75
2018-07-09T05:30:14.427Z,1018.74
2018-07-09T05:31:23.341Z,1018.64
2018-07-09T05:32:31.983Z,1018.59
2018-07-09T05:33:40.639Z,1018.59
2018-07-09T05:34:49.275Z,1018.58
2018-07-09T05:35:57.920Z,1018.55
2018-07-09T05:37:06.570Z,1018.59
2018-07-09T05:38:15.225Z,1018.57
2018-07-09T05:39:23.869Z,1018.56
2018-07-09T05:40:32.506Z,1018.59
2018-07-09T05:41:41.414Z,1018.57
2018-07-09T05:42:50.061Z,1018.6
2018-07-09T05:43:58.708Z,1018.62
2018-07-09T05:45:07.347Z,1018.6
2018-07-09T05:46:15.996Z,1018.6
2018-07-09T05:47:24.633Z,1018.63
2018-07-09T05:48:33.289Z,1018.64
2018-07-09T05:49:41.930Z,1018.66
2018-07-09T05:50:50.841Z,1018.72
2018-07-09T05:51:59.751Z,1018.71
2018-07-09T05:53:08.400Z,1018.69
2018-07-09T05:54:17.042Z,1018.69
2018-07-09T05:55:25.692Z,1018.7
2018-07-09T05:56:34.612Z,1018.68
2018-07-09T05:57:43.258Z,1018.71
2018-07-09T05:58:51.927Z,1018.67
2018-07-09T06:00:00.556Z,1018.71
2018-07-09T06:01:09.203Z,1018.72
2018-07-09T06:02:17.843Z,1018.65
2018-07-09T06:03:26.491Z,1018.74
2018-07-09T06:04:35.139Z,1018.69
2018-07-09T06:05:43.786Z,1018.71
2018-07-09T06:06:52.428Z,1018.72
2018-07-09T06:08:01.074Z,1018.73
2018-07-09T06:09:10.255Z,1018.7
2018-07-09T06:10:18.907Z,1018.75
2018-07-09T06:11:27.600Z,1018.71
2018-07-09T06:12:36.201Z,1018.67
2018-07-09T06:13:45.107Z,1018.69
2018-07-09T06:14:53.764Z,1018.69
2018-07-09T06:16:02.413Z,1018.69
2018-07-09T06:17:11.326Z,1018.68
2018-07-09T06:18:19.973Z,1018.69
2018-07-09T06:19:28.768Z,1018.71
2018-07-09T06:20:37.628Z,1018.78
2018-07-09T06:21:46.272Z,1018.75
2018-07-09T06:22:54.920Z,1018.72
2018-07-09T06:24:03.573Z,1018.71
2018-07-09T06:25:12.487Z,1018.71
2018-07-09T06:26:21.136Z,1018.72
2018-07-09T06:27:29.782Z,1018.74
2018-07-09T06:28:38.430Z,1018.72
2018-07-09T06:29:47.081Z,1018.7
2018-07-09T06:30:55.732Z,1018.7
2018-07-09T06:32:04.384Z,1018.7
2018-07-09T06:33:13.290Z,1018.71
2018-07-09T06:34:21.939Z,1018.64
2018-07-09T06:35:30.854Z,1018.65
2018-07-09T06:36:39.507Z,1018.66
2018-07-09T06:37:48.159Z,1018.63
2018-07-09T06:38:56.799Z,1018.61
2018-07-09T06:40:05.447Z,1018.61
2018-07-09T06:41:14.092Z,1018.61
2018-07-09T06:42:22.748Z,1018.6
2018-07-09T06:43:31.392Z,1018.68
2018-07-09T06:44:40.050Z,1018.67
2018-07-09T06:45:48.687Z,1018.71
2018-07-09T06:46:57.608Z,1018.73
2018-07-09T06:48:06.250Z,1018.73
2018-07-09T06:49:14.903Z,1018.73
2018-07-09T06:50:23.808Z,1018.71
2018-07-09T06:51:32.994Z,1018.76
2018-07-09T06:52:41.642Z,1018.79
2018-07-09T06:53:50.283Z,1018.8
2018-07-09T06:54:58.928Z,1018.83
2018-07-09T06:56:07.572Z,1018.9
2018-07-09T06:57:16.229Z,1018.92
2018-07-09T06:58:24.871Z,1018.94
2018-07-09T06:59:33.528Z,1018.92
2018-07-09T07:00:42.168Z,1018.93
2018-07-09T07:01:50.825Z,1018.88
2018-07-09T07:02:59.468Z,1018.78
2018-07-09T07:04:08.121Z,1018.76
2018-07-09T07:05:16.755Z,1018.79
2018-07-09T07:06:25.677Z,1018.74
2018-07-09T07:07:34.354Z,1018.76
2018-07-09T07:08:43.002Z,1018.75
2018-07-09T07:09:51.612Z,1018.72
2018-07-09T07:11:00.266Z,1018.71
2018-07-09T07:12:09.445Z,1018.71
2018-07-09T07:13:18.100Z,1018.7
2018-07-09T07:14:26.787Z,1018.66
2018-07-09T07:15:35.650Z,1018.68
2018-07-09T07:16:44.303Z,1018.66
2018-07-09T07:17:53.211Z,1018.66
2018-07-09T07:19:02.143Z,1018.67
2018-07-09T07:20:11.050Z,1018.71
2018-07-09T07:21:19.964Z,1018.66
2018-07-09T07:22:28.879Z,1018.66
2018-07-09T07:23:37.535Z,1018.55
2018-07-09T07:24:46.174Z,1018.56
2018-07-09T07:25:54.826Z,1018.55
2018-07-09T07:27:03.473Z,1018.52
2018-07-09T07:28:12.132Z,1018.52
2018-07-09T07:29:21.038Z,1018.42
2018-07-09T07:30:29.684Z,1018.42
2018-07-09T07:31:38.329Z,1018.42
2018-07-09T07:32:47.062Z,1018.49
2018-07-09T07:33:55.639Z,1018.53
2018-07-09T07:35:04.286Z,1018.54
2018-07-09T07:36:13.209Z,1018.56
2018-07-09T07:37:21.848Z,1018.49
2018-07-09T07:38:30.505Z,1018.49
2018-07-09T07:39:39.149Z,1018.49
2018-07-09T07:40:47.802Z,1018.48
2018-07-09T07:41:56.440Z,1018.47
2018-07-09T07:43:05.370Z,1018.46
2018-07-09T07:44:14.278Z,1018.44
2018-07-09T07:45:22.933Z,1018.4
2018-07-09T07:46:31.577Z,1018.43
2018-07-09T07:47:40.223Z,1018.45
2018-07-09T07:48:48.877Z,1018.4
2018-07-09T07:49:57.523Z,1018.43
2018-07-09T07:51:06.504Z,1018.38
2018-07-09T07:52:15.164Z,1018.38
2018-07-09T07:53:24.075Z,1018.38
2018-07-09T07:54:32.730Z,1018.4
2018-07-09T07:55:41.372Z,1018.36
2018-07-09T07:56:50.031Z,1018.39
2018-07-09T07:57:58.676Z,1018.41
2018-07-09T07:59:07.331Z,1018.4
2018-07-09T08:00:15.970Z,1018.4
2018-07-09T08:01:24.627Z,1018.43
2018-07-09T08:02:33.274Z,1018.41
2018-07-09T08:03:41.932Z,1018.42
2018-07-09T08:04:50.835Z,1018.37
2018-07-09T08:05:59.486Z,1018.35
2018-07-09T08:07:08.141Z,1018.36
2018-07-09T08:08:16.794Z,1018.39
2018-07-09T08:09:25.584Z,1018.46
2018-07-09T08:10:34.088Z,1018.48
2018-07-09T08:11:48.566Z,1018.46
2018-07-09T08:13:27.167Z,1018.5
2018-07-09T08:14:37.328Z,1018.51
2018-07-09T08:15:45.970Z,1018.48
2018-07-09T08:16:54.626Z,1018.44
2018-07-09T08:18:03.268Z,1018.46
2018-07-09T08:19:11.949Z,1018.46
2018-07-09T08:20:20.592Z,1018.42
2018-07-09T08:21:29.244Z,1018.38
2018-07-09T08:22:37.899Z,1018.41
2018-07-09T08:23:46.552Z,1018.39
2018-07-09T08:24:55.227Z,1018.42
2018-07-09T08:26:04.266Z,1018.38
2018-07-09T08:27:12.917Z,1018.38
2018-07-09T08:28:21.572Z,1018.35
2018-07-09T08:29:30.236Z,1018.34
2018-07-09T08:30:39.223Z,1018.27
2018-07-09T08:31:47.879Z,1018.29
2018-07-09T08:32:56.520Z,1018.19
2018-07-09T08:34:05.178Z,1018.19
2018-07-09T08:35:14.464Z,1018.19
2018-07-09T08:36:23.149Z,1018.2
2018-07-09T08:37:31.796Z,1018.2
2018-07-09T08:38:40.715Z,1018.17
2018-07-09T08:39:49.364Z,1018.19
2018-07-09T08:40:58.017Z,1018.25
2018-07-09T08:42:06.989Z,1018.18
2018-07-09T08:43:16.328Z,1018.21
2018-07-09T08:44:25.246Z,1018.18
2018-07-09T08:45:33.896Z,1018.14
2018-07-09T08:46:42.547Z,1018.14
2018-07-09T08:47:51.186Z,1018.16
2018-07-09T08:48:59.840Z,1018.24
2018-07-09T08:50:08.487Z,1018.2
2018-07-09T08:51:17.143Z,1018.22
2018-07-09T08:52:25.785Z,1018.24
2018-07-09T08:53:34.432Z,1018.21
2018-07-09T08:54:43.909Z,1018.21
2018-07-09T08:55:56.252Z,1018.17
2018-07-09T08:57:04.900Z,1018.2
2018-07-09T08:58:13.551Z,1018.22
2018-07-09T08:59:22.199Z,1018.22
2018-07-09T09:00:30.854Z,1018.18
2018-07-09T09:01:39.502Z,1018.23
2018-07-09T09:02:48.165Z,1018.17
2018-07-09T09:03:56.812Z,1018.22
2018-07-09T09:05:05.460Z,1018.22
2018-07-09T09:06:14.115Z,1018.2
2018-07-09T09:07:22.768Z,1018.17
2018-07-09T09:08:31.420Z,1018.12
2018-07-09T09:09:40.069Z,1018.13
2018-07-09T09:10:48.990Z,1018.13
2018-07-09T09:11:57.641Z,1018.18
2018-07-09T09:13:06.917Z,1018.16
2018-07-09T09:14:19.180Z,1018.16
2018-07-09T09:15:30.141Z,1018.13
2018-07-09T09:16:42.485Z,1018.18
2018-07-09T09:17:51.138Z,1018.18
2018-07-09T09:18:59.786Z,1018.22
2018-07-09T09:20:08.440Z,1018.19
2018-07-09T09:21:17.093Z,1018.2
2018-07-09T09:22:25.748Z,1018.21
2018-07-09T09:23:34.856Z,1018.19
2018-07-09T09:24:46.382Z,1018.21
2018-07-09T09:25:55.037Z,1018.19
2018-07-09T09:27:03.960Z,1018.17
2018-07-09T09:28:13.143Z,1018.16
2018-07-09T09:29:21.788Z,1018.16
2018-07-09T09:30:30.440Z,1018.13
2018-07-09T09:31:39.135Z,1018.11
2018-07-09T09:32:48.152Z,1018.15
2018-07-09T09:33:56.798Z,1018.17
2018-07-09T09:35:05.723Z,1018.15
2018-07-09T09:36:14.374Z,1018.16
2018-07-09T09:37:23.310Z,1018.18
2018-07-09T09:38:31.939Z,1018.21
2018-07-09T09:39:40.588Z,1018.17
2018-07-09T09:40:49.241Z,1018.18
2018-07-09T09:41:57.884Z,1018.17
2018-07-09T09:43:06.833Z,1018.17
2018-07-09T09:44:15.468Z,1018.18
2018-07-09T09:45:24.119Z,1018.17
2018-07-09T09:46:32.766Z,1018.11
2018-07-09T09:47:41.420Z,1018.07
2018-07-09T09:48:50.074Z,1018.09
2018-07-09T09:49:58.723Z,1018.05
2018-07-09T09:51:07.381Z,1018.07
2018-07-09T09:52:16.023Z,1018.08
2018-07-09T09:53:24.943Z,1018.08
2018-07-09T09:54:33.596Z,1018.06
2018-07-09T09:55:42.252Z,1018.1
2018-07-09T09:56:50.903Z,1018.1
2018-07-09T09:57:59.548Z,1018.08
2018-07-09T09:59:08.198Z,1018.06
2018-07-09T10:00:16.848Z,1018.11
2018-07-09T10:01:25.785Z,1018.13
2018-07-09T10:02:34.431Z,1018.15
2018-07-09T10:03:43.129Z,1018.18
2018-07-09T10:04:51.728Z,1018.17
2018-07-09T10:06:00.389Z,1018.16
2018-07-09T10:07:09.039Z,1018.14
2018-07-09T10:08:17.690Z,1018.19
2018-07-09T10:09:26.594Z,1018.13
2018-07-09T10:10:35.254Z,1018.14
2018-07-09T10:11:43.904Z,1018.15
2018-07-09T10:12:52.559Z,1018.13
2018-07-09T10:14:01.201Z,1018.12
2018-07-09T10:15:09.854Z,1018.13
2018-07-09T10:16:18.510Z,1018.12
2018-07-09T10:17:27.162Z,1018.17
2018-07-09T10:18:35.815Z,1018.15
2018-07-09T10:19:44.720Z,1018.13
2018-07-09T10:20:53.378Z,1018.14
2018-07-09T10:22:02.021Z,1018.13
2018-07-09T10:23:10.839Z,1018.13
2018-07-09T10:24:19.674Z,1018.13
2018-07-09T10:25:28.329Z,1018.08
2018-07-09T10:26:36.974Z,1018.05
2018-07-09T10:27:45.638Z,1018.06
2018-07-09T10:28:54.282Z,1018.04
2018-07-09T10:30:02.932Z,1018.07
2018-07-09T10:31:11.580Z,1018.04
2018-07-09T10:32:20.241Z,1018.09
2018-07-09T10:33:28.890Z,1018.07
2018-07-09T10:34:37.540Z,1018.06
2018-07-09T10:35:46.190Z,1018.02
2018-07-09T10:36:54.836Z,1018.02
2018-07-09T10:38:03.496Z,1018.01
2018-07-09T10:39:12.139Z,1017.99
2018-07-09T10:40:20.796Z,1018.04
2018-07-09T10:41:29.441Z,1018.09
2018-07-09T10:42:38.105Z,1018.05
2018-07-09T10:43:46.751Z,1018.07
2018-07-09T10:44:55.409Z,1018.09
2018-07-09T10:46:04.058Z,1018.04
2018-07-09T10:47:12.746Z,1018.08
2018-07-09T10:48:21.359Z,1018.04
2018-07-09T10:49:30.014Z,1018.05
2018-07-09T10:50:38.925Z,1018.01
2018-07-09T10:51:47.580Z,1018
2018-07-09T10:52:56.486Z,1018.01
2018-07-09T10:54:05.138Z,1018.01
2018-07-09T10:55:13.829Z,1018
2018-07-09T10:56:22.742Z,1017.95
2018-07-09T10:57:31.393Z,1017.95
2018-07-09T10:58:40.045Z,1017.92
2018-07-09T10:59:48.704Z,1017.93
2018-07-09T11:00:57.615Z,1017.91
2018-07-09T11:02:06.267Z,1017.89
2018-07-09T11:03:14.924Z,1017.87
2018-07-09T11:04:23.577Z,1017.88
2018-07-09T11:05:32.224Z,1017.9
2018-07-09T11:06:40.879Z,1017.94
2018-07-09T11:07:49.532Z,1017.91
2018-07-09T11:08:58.191Z,1017.89
2018-07-09T11:10:07.101Z,1017.88
2018-07-09T11:11:15.753Z,1017.96
2018-07-09T11:12:24.407Z,1017.98
2018-07-09T11:13:33.051Z,1017.93
2018-07-09T11:14:41.974Z,1017.92
2018-07-09T11:15:50.626Z,1017.92
2018-07-09T11:16:59.276Z,1017.82
2018-07-09T11:18:08.190Z,1017.86
2018-07-09T11:19:16.844Z,1017.88
2018-07-09T11:20:25.495Z,1017.91
2018-07-09T11:21:34.154Z,1017.92
2018-07-09T11:22:42.796Z,1017.88
2018-07-09T11:23:51.720Z,1017.88
2018-07-09T11:25:00.374Z,1017.88
2018-07-09T11:26:09.029Z,1017.82
2018-07-09T11:27:17.675Z,1017.85
2018-07-09T11:28:26.326Z,1017.85
2018-07-09T11:29:34.977Z,1017.84
2018-07-09T11:30:43.628Z,1017.8
2018-07-09T11:31:52.817Z,1017.88
2018-07-09T11:33:01.461Z,1017.88
2018-07-09T11:34:10.375Z,1017.84
2018-07-09T11:35:19.025Z,1017.85
2018-07-09T11:36:27.717Z,1017.82
2018-07-09T11:37:36.357Z,1017.82
2018-07-09T11:38:44.995Z,1017.79
2018-07-09T11:39:53.647Z,1017.81
2018-07-09T11:41:02.305Z,1017.8
2018-07-09T11:42:10.986Z,1017.78
2018-07-09T11:43:19.606Z,1017.77
2018-07-09T11:44:28.254Z,1017.76
2018-07-09T11:45:36.899Z,1017.78
2018-07-09T11:46:45.553Z,1017.78
2018-07-09T11:47:54.205Z,1017.75
2018-07-09T11:49:02.857Z,1017.76
2018-07-09T11:50:11.511Z,1017.8
2018-07-09T11:51:20.156Z,1017.74
2018-07-09T11:52:28.808Z,1017.72
2018-07-09T11:53:37.459Z,1017.71
2018-07-09T11:54:46.120Z,1017.74
2018-07-09T11:55:54.762Z,1017.71
2018-07-09T11:57:03.414Z,1017.72
2018-07-09T11:58:12.062Z,1017.66
2018-07-09T11:59:20.727Z,1017.6
2018-07-09T12:00:29.371Z,1017.65
2018-07-09T12:01:38.023Z,1017.61
2018-07-09T12:02:46.672Z,1017.58
2018-07-09T12:03:55.326Z,1017.59
2018-07-09T12:05:03.975Z,1017.63
2018-07-09T12:06:12.625Z,1017.6
2018-07-09T12:07:21.281Z,1017.62
2018-07-09T12:08:30.223Z,1017.59
2018-07-09T12:09:38.883Z,1017.55
2018-07-09T12:10:47.534Z,1017.58
2018-07-09T12:11:56.186Z,1017.59
2018-07-09T12:13:05.094Z,1017.58
2018-07-09T12:14:13.750Z,1017.56
2018-07-09T12:15:22.404Z,1017.62
2018-07-09T12:16:31.316Z,1017.55
2018-07-09T12:17:39.961Z,1017.58
2018-07-09T12:18:48.618Z,1017.5
2018-07-09T12:19:57.794Z,1017.5
2018-07-09T12:21:06.451Z,1017.5
2018-07-09T12:22:15.097Z,1017.48
2018-07-09T12:23:24.017Z,1017.46
2018-07-09T12:24:32.667Z,1017.48
2018-07-09T12:25:41.330Z,1017.5
2018-07-09T12:26:49.984Z,1017.53
2018-07-09T12:27:58.895Z,1017.48
2018-07-09T12:29:07.916Z,1017.48
2018-07-09T12:30:16.466Z,1017.43
2018-07-09T12:31:25.123Z,1017.37
2018-07-09T12:32:33.771Z,1017.41
2018-07-09T12:33:42.426Z,1017.36
2018-07-09T12:34:51.075Z,1017.35
2018-07-09T12:36:00.001Z,1017.35
2018-07-09T12:37:08.651Z,1017.37
2018-07-09T12:38:17.304Z,1017.41
2018-07-09T12:39:25.953Z,1017.38
2018-07-09T12:40:34.607Z,1017.3
2018-07-09T12:41:43.261Z,1017.26
2018-07-09T12:42:51.909Z,1017.28
2018-07-09T12:44:00.558Z,1017.26
2018-07-09T12:45:09.209Z,1017.22
2018-07-09T12:46:18.137Z,1017.23
2018-07-09T12:47:26.785Z,1017.18
2018-07-09T12:48:35.444Z,1017.14
2018-07-09T12:49:44.137Z,1017.16
2018-07-09T12:50:52.757Z,1017.18
2018-07-09T12:52:01.402Z,1017.13
2018-07-09T12:53:10.064Z,1017.12
2018-07-09T12:54:18.704Z,1017.12
2018-07-09T12:55:27.366Z,1017.15
2018-07-09T12:56:36.026Z,1017.13
2018-07-09T12:57:44.680Z,1017.08
2018-07-09T12:58:53.698Z,1017.11
2018-07-09T13:00:02.390Z,1017.11
2018-07-09T13:01:11.049Z,1017.09
2018-07-09T13:02:19.703Z,1017.07
2018-07-09T13:03:28.358Z,1017.01
2018-07-09T13:04:37.001Z,1016.97
2018-07-09T13:05:45.663Z,1016.99
2018-07-09T13:06:54.618Z,1017.03
2018-07-09T13:08:03.547Z,1016.98
2018-07-09T13:09:12.188Z,1016.95
2018-07-09T13:10:20.847Z,1017.03
2018-07-09T13:11:29.495Z,1016.94
2018-07-09T13:12:38.157Z,1016.97
2018-07-09T13:13:47.065Z,1016.93
2018-07-09T13:14:55.720Z,1016.94
2018-07-09T13:16:04.370Z,1016.89
2018-07-09T13:17:13.033Z,1016.9
2018-07-09T13:18:21.683Z,1016.85
2018-07-09T13:19:30.332Z,1016.85
2018-07-09T13:20:38.981Z,1016.87
2018-07-09T13:21:47.897Z,1016.78
2018-07-09T13:22:56.558Z,1016.79
2018-07-09T13:24:05.204Z,1016.79
2018-07-09T13:25:13.862Z,1016.83
2018-07-09T13:26:22.506Z,1016.83
2018-07-09T13:27:31.174Z,1016.82
2018-07-09T13:28:39.815Z,1016.75
2018-07-09T13:29:48.476Z,1016.76
2018-07-09T13:30:57.391Z,1016.72
2018-07-09T13:32:06.041Z,1016.69
2018-07-09T13:33:14.953Z,1016.73
2018-07-09T13:34:23.886Z,1016.74
2018-07-09T13:35:32.518Z,1016.73
2018-07-09T13:36:41.178Z,1016.74
2018-07-09T13:37:49.840Z,1016.72
2018-07-09T13:38:58.489Z,1016.67
2018-07-09T13:40:07.143Z,1016.68
2018-07-09T13:41:15.785Z,1016.71
2018-07-09T13:42:24.440Z,1016.67
2018-07-09T13:43:33.092Z,1016.6
2018-07-09T13:44:41.746Z,1016.6
2018-07-09T13:45:50.913Z,1016.55
2018-07-09T13:46:59.567Z,1016.59
2018-07-09T13:48:08.490Z,1016.56
2018-07-09T13:49:17.147Z,1016.57
2018-07-09T13:50:25.796Z,1016.54
2018-07-09T13:51:34.451Z,1016.52
2018-07-09T13:52:43.101Z,1016.48
2018-07-09T13:53:51.762Z,1016.5